Time;durP1;ratioP1;P1;durP2;ratioP2;P2;SDS_P1;SDS_P2;PMS_P1;PMS_P2;Temp;Humidity;BMP_temperature;BMP_pressure;BME280_temperature;BME280_humidity;BME280_pressure;Samples;Min_cycle;Max_cycle;Signal;HPM_P1;HPM_P2
2021/12/26 00:01:31;;;;;;;1.98;1.50;;;-4.60;70.80;;;;;;6063970;23;94685;-71
2021/12/26 00:03:58;;;;;;;4.05;1.50;;;-4.60;70.50;;;;;;6063831;23;92824;-71
2021/12/26 00:06:27;;;;;;;6.05;1.88;;;-4.60;70.40;;;;;;6065018;23;102670;-71
2021/12/26 00:08:59;;;;;;;2.03;1.67;;;-4.60;70.40;;;;;;6065525;23;92960;-71
2021/12/26 00:11:27;;;;;;;2.78;1.83;;;-4.60;70.50;;;;;;6065680;23;92739;-71
2021/12/26 00:13:55;;;;;;;2.33;2.10;;;-4.60;70.90;;;;;;6065895;23;92461;-71
2021/12/26 00:16:23;;;;;;;3.80;1.98;;;-4.70;71.20;;;;;;6088578;23;92505;-71
2021/12/26 00:18:51;;;;;;;3.28;2.28;;;-4.70;71.10;;;;;;6065806;23;92198;-72
2021/12/26 00:21:20;;;;;;;2.28;1.88;;;-4.70;71.10;;;;;;6064104;23;92997;-71
2021/12/26 00:23:48;;;;;;;2.10;1.85;;;-4.70;71.30;;;;;;6065520;23;92460;-71
2021/12/26 00:26:15;;;;;;;5.30;2.17;;;-4.70;71.50;;;;;;6064181;23;94832;-71
2021/12/26 00:28:42;;;;;;;3.47;2.03;;;-4.80;71.90;;;;;;6063431;23;94095;-71
2021/12/26 00:31:09;;;;;;;2.92;2.58;;;-4.80;72.40;;;;;;6063490;23;95234;-71
2021/12/26 00:33:36;;;;;;;2.55;2.20;;;-4.90;72.30;;;;;;6087573;23;102558;-71
2021/12/26 00:36:04;;;;;;;4.55;2.38;;;-4.90;72.30;;;;;;6088283;23;92390;-71
2021/12/26 00:38:32;;;;;;;6.03;2.38;;;-4.90;72.70;;;;;;6063563;23;92989;-71
2021/12/26 00:41:00;;;;;;;4.72;2.17;;;-4.90;72.30;;;;;;6079855;23;92609;-70
2021/12/26 00:43:27;;;;;;;2.78;2.00;;;-4.90;72.50;;;;;;6093564;23;91718;-71
2021/12/26 00:45:55;;;;;;;2.63;2.20;;;-5.00;72.30;;;;;;6094701;23;92447;-71
2021/12/26 00:48:22;;;;;;;3.22;1.83;;;-4.90;72.50;;;;;;6069168;23;93121;-71
2021/12/26 00:50:49;;;;;;;1.92;1.83;;;-5.00;72.60;;;;;;6066582;23;94823;-71
2021/12/26 00:53:16;;;;;;;2.83;1.95;;;-5.00;72.50;;;;;;6118018;23;92463;-71
2021/12/26 00:55:44;;;;;;;3.58;2.50;;;-5.00;72.50;;;;;;6093078;23;92869;-71
2021/12/26 00:58:12;;;;;;;3.90;2.00;;;-5.00;72.80;;;;;;6068389;23;95727;-71
2021/12/26 01:00:44;;;;;;;3.53;1.90;;;-5.00;72.80;;;;;;6117487;23;95375;-71
2021/12/26 01:03:12;;;;;;;6.65;2.50;;;-5.00;73.10;;;;;;6095207;23;92426;-71
2021/12/26 01:05:41;;;;;;;1.98;1.73;;;-5.00;72.60;;;;;;6092795;23;92432;-71
2021/12/26 01:08:12;;;;;;;3.75;2.03;;;-5.00;72.60;;;;;;6093283;23;94680;-70
2021/12/26 01:10:49;;;;;;;5.82;1.90;;;-5.10;72.30;;;;;;6092249;23;94403;-71
2021/12/26 01:13:37;;;;;;;4.80;2.25;;;-5.10;72.00;;;;;;6093740;23;92399;-71
2021/12/26 01:16:34;;;;;;;4.10;1.90;;;-5.10;72.10;;;;;;6067261;23;94960;-72
2021/12/26 01:19:10;;;;;;;2.63;1.83;;;-5.10;72.20;;;;;;6095109;23;92931;-71
2021/12/26 01:21:38;;;;;;;4.00;2.25;;;-5.10;71.90;;;;;;6069156;23;95311;-71
2021/12/26 01:24:14;;;;;;;3.08;1.63;;;-5.10;72.20;;;;;;6095518;23;92453;-72
2021/12/26 01:26:42;;;;;;;3.95;1.85;;;-5.10;72.10;;;;;;6093491;23;92397;-71
2021/12/26 01:29:15;;;;;;;3.78;2.00;;;-5.10;72.00;;;;;;6045616;23;94111;-71
2021/12/26 01:31:42;;;;;;;2.53;2.33;;;-5.20;72.30;;;;;;6068289;23;94996;-71
2021/12/26 01:34:29;;;;;;;2.33;1.70;;;-5.20;72.40;;;;;;6095180;23;91818;-71
2021/12/26 01:37:13;;;;;;;1.95;1.73;;;-5.20;72.50;;;;;;6068376;23;92581;-71
2021/12/26 01:39:58;;;;;;;2.63;1.83;;;-5.20;72.50;;;;;;6092636;23;92553;-70
2021/12/26 01:42:45;;;;;;;2.08;1.77;;;-5.20;72.20;;;;;;6066629;23;95015;-71
2021/12/26 01:45:19;;;;;;;1.98;1.80;;;-5.20;71.90;;;;;;6068532;23;92903;-71
2021/12/26 01:48:00;;;;;;;2.95;1.80;;;-5.20;71.40;;;;;;6068023;23;92386;-72
2021/12/26 01:50:29;;;;;;;4.07;2.13;;;-5.20;71.60;;;;;;6067779;23;95213;-71
2021/12/26 01:52:56;;;;;;;2.28;2.08;;;-5.20;71.00;;;;;;6067405;23;94855;-72
2021/12/26 01:55:26;;;;;;;2.30;1.70;;;-5.20;70.70;;;;;;6068293;23;92422;-72
2021/12/26 01:57:56;;;;;;;3.38;2.10;;;-5.20;71.00;;;;;;6068183;23;92535;-71
2021/12/26 02:00:25;;;;;;;4.22;1.77;;;-5.20;70.40;;;;;;6094903;23;92706;-71
2021/12/26 02:02:52;;;;;;;1.60;1.48;;;-5.20;70.10;;;;;;6068392;23;92468;-71
2021/12/26 02:05:20;;;;;;;2.90;2.08;;;-5.20;69.30;;;;;;6068087;23;92424;-73
2021/12/26 02:07:48;;;;;;;2.80;1.67;;;-5.20;69.30;;;;;;6090578;23;94883;-71
2021/12/26 02:10:15;;;;;;;3.03;1.90;;;-5.20;69.00;;;;;;6117221;23;95559;-71
2021/12/26 02:12:42;;;;;;;2.92;1.70;;;-5.20;69.30;;;;;;6068047;23;94367;-71
2021/12/26 02:15:10;;;;;;;1.63;1.30;;;-5.20;68.60;;;;;;6068277;23;92526;-71
2021/12/26 02:17:47;;;;;;;1.98;1.52;;;-5.20;68.40;;;;;;6092538;23;92475;-71
2021/12/26 02:20:39;;;;;;;2.85;1.80;;;-5.20;68.20;;;;;;6092238;23;96286;-71
2021/12/26 02:23:13;;;;;;;3.05;1.70;;;-5.20;68.00;;;;;;6094718;23;92857;-70
2021/12/26 02:28:12;;;;;;;1.67;1.58;;;-5.10;67.40;;;;;;6069097;23;92504;-71
2021/12/26 02:30:40;;;;;;;2.00;1.88;;;-5.10;66.80;;;;;;6095300;23;92942;-71
2021/12/26 02:33:11;;;;;;;2.13;1.63;;;-5.20;67.00;;;;;;6091705;23;95639;-71
2021/12/26 02:35:39;;;;;;;2.55;1.77;;;-5.10;66.90;;;;;;6069497;23;92689;-71
2021/12/26 02:38:09;;;;;;;3.10;1.05;;;-5.10;66.40;;;;;;6068784;23;92644;-71
2021/12/26 02:40:40;;;;;;;2.38;2.15;;;-5.10;66.20;;;;;;6068499;23;95834;-72
2021/12/26 02:43:08;;;;;;;2.50;1.95;;;-5.20;66.20;;;;;;6093114;23;95517;-71
2021/12/26 02:45:36;;;;;;;2.35;1.90;;;-5.10;66.30;;;;;;6095616;23;92394;-71
2021/12/26 02:48:07;;;;;;;2.30;1.63;;;-5.20;66.20;;;;;;6095606;23;92493;-71
2021/12/26 02:50:35;;;;;;;2.22;2.00;;;-5.20;66.10;;;;;;6118702;23;94637;-71
2021/12/26 02:53:03;;;;;;;2.55;1.75;;;-5.20;66.10;;;;;;6044412;23;94460;-71
2021/12/26 02:55:30;;;;;;;2.53;1.70;;;-5.20;66.00;;;;;;6093805;23;92429;-71
2021/12/26 02:58:07;;;;;;;2.92;2.03;;;-5.20;66.20;;;;;;6091940;23;94948;-70
2021/12/26 03:00:48;;;;;;;1.95;1.50;;;-5.20;66.10;;;;;;6093677;23;95557;-70
2021/12/26 03:03:15;;;;;;;1.90;1.70;;;-5.20;66.00;;;;;;6093012;23;95111;-71
2021/12/26 03:05:45;;;;;;;3.45;1.65;;;-5.20;66.20;;;;;;6069000;23;92689;-71
2021/12/26 03:08:18;;;;;;;1.73;1.40;;;-5.20;66.00;;;;;;6094955;23;92314;-69
2021/12/26 03:10:46;;;;;;;1.52;1.40;;;-5.20;65.70;;;;;;6068636;23;95443;-68
2021/12/26 03:13:14;;;;;;;2.17;1.70;;;-5.20;65.70;;;;;;6094569;23;92706;-69
2021/12/26 03:15:42;;;;;;;1.80;1.50;;;-5.20;65.70;;;;;;6094019;23;91694;-68
2021/12/26 03:18:09;;;;;;;2.55;1.65;;;-5.20;65.90;;;;;;6095292;23;92867;-68
2021/12/26 03:20:41;;;;;;;4.30;2.05;;;-5.20;65.90;;;;;;6095431;23;92311;-68
2021/12/26 03:23:11;;;;;;;2.20;1.70;;;-5.20;66.50;;;;;;6091980;23;94915;-68
2021/12/26 03:25:39;;;;;;;1.70;1.60;;;-5.30;65.80;;;;;;6093501;23;92452;-69
2021/12/26 03:28:08;;;;;;;1.52;1.42;;;-5.30;66.00;;;;;;6095193;23;92868;-69
2021/12/26 03:30:36;;;;;;;3.38;2.03;;;-5.30;65.60;;;;;;6093070;23;95375;-68
2021/12/26 03:33:07;;;;;;;2.53;1.63;;;-5.30;65.30;;;;;;6044928;23;95165;-69
2021/12/26 03:35:36;;;;;;;2.08;1.83;;;-5.30;65.40;;;;;;6069361;23;92412;-68
2021/12/26 03:38:05;;;;;;;2.75;1.70;;;-5.20;65.50;;;;;;6093607;23;92441;-68
2021/12/26 03:40:48;;;;;;;2.88;1.95;;;-5.30;65.50;;;;;;6095795;23;92074;-69
2021/12/26 03:43:16;;;;;;;3.63;1.88;;;-5.30;65.30;;;;;;6118196;23;94723;-68
2021/12/26 03:45:48;;;;;;;3.53;1.70;;;-5.30;65.60;;;;;;6093814;23;92464;-69
2021/12/26 03:48:18;;;;;;;2.60;1.70;;;-5.30;65.40;;;;;;6092242;23;94896;-69
2021/12/26 03:50:45;;;;;;;5.40;2.05;;;-5.30;65.20;;;;;;6068766;23;95890;-68
2021/12/26 03:53:14;;;;;;;2.30;1.63;;;-5.30;65.10;;;;;;6068839;23;95278;-68
2021/12/26 03:55:44;;;;;;;1.65;1.40;;;-5.30;65.30;;;;;;6095761;23;92391;-68
2021/12/26 03:58:13;;;;;;;2.60;2.10;;;-5.30;65.20;;;;;;6069660;23;92536;-68
2021/12/26 04:00:41;;;;;;;6.40;2.28;;;-5.30;66.20;;;;;;6093513;23;95701;-68
2021/12/26 04:03:08;;;;;;;2.63;2.05;;;-5.40;65.70;;;;;;6093168;23;95238;-68
2021/12/26 04:05:51;;;;;;;1.60;1.50;;;-5.40;65.90;;;;;;6069096;23;91842;-68
2021/12/26 04:08:19;;;;;;;2.45;1.98;;;-5.40;66.10;;;;;;6069204;23;92925;-68
2021/12/26 04:10:46;;;;;;;2.20;1.90;;;-5.40;66.00;;;;;;6093792;23;95515;-68
2021/12/26 04:13:15;;;;;;;1.95;1.75;;;-5.40;66.10;;;;;;6091704;23;95740;-68
2021/12/26 04:15:43;;;;;;;1.90;1.70;;;-5.40;66.20;;;;;;6069025;23;92484;-69
2021/12/26 04:18:10;;;;;;;2.88;2.25;;;-5.40;66.00;;;;;;6117930;23;92431;-69
2021/12/26 04:20:38;;;;;;;3.33;2.30;;;-5.40;66.10;;;;;;6068462;23;95015;-69
2021/12/26 04:23:05;;;;;;;2.60;1.90;;;-5.40;66.10;;;;;;6068054;23;94911;-69
2021/12/26 04:25:33;;;;;;;3.78;1.90;;;-5.50;66.00;;;;;;6093335;23;92467;-69
2021/12/26 04:28:00;;;;;;;3.00;2.22;;;-5.50;66.20;;;;;;6093223;23;92477;-69
2021/12/26 04:30:28;;;;;;;2.20;2.00;;;-5.50;66.50;;;;;;6068600;23;94763;-68
2021/12/26 04:32:55;;;;;;;5.70;2.03;;;-5.50;66.20;;;;;;6095049;23;93547;-68
2021/12/26 04:35:23;;;;;;;3.45;2.20;;;-5.50;66.40;;;;;;6068631;23;92465;-68
2021/12/26 04:37:50;;;;;;;2.20;2.00;;;-5.50;66.60;;;;;;6067279;23;94853;-68
2021/12/26 04:40:18;;;;;;;4.82;2.10;;;-5.50;66.60;;;;;;6067945;23;95738;-68
2021/12/26 04:43:21;;;;;;;2.65;2.10;;;-5.50;66.70;;;;;;6004502;23;92523;-71
2021/12/26 04:46:11;;;;;;;4.90;2.63;;;-5.60;67.00;;;;;;6076576;23;92500;-72
2021/12/26 04:48:52;;;;;;;2.60;2.17;;;-5.60;66.90;;;;;;6068920;23;92548;-72
2021/12/26 04:51:19;;;;;;;2.28;1.90;;;-5.60;67.30;;;;;;6094475;23;92507;-72
2021/12/26 04:53:52;;;;;;;2.80;2.20;;;-5.60;67.80;;;;;;6045697;23;95038;-72
2021/12/26 04:56:19;;;;;;;2.42;1.83;;;-5.60;67.80;;;;;;6068985;23;91785;-72
2021/12/26 04:58:47;;;;;;;2.40;2.20;;;-5.60;67.70;;;;;;6068699;23;92490;-72
2021/12/26 05:01:14;;;;;;;3.35;2.33;;;-5.60;67.80;;;;;;6068091;23;94082;-71
2021/12/26 05:03:41;;;;;;;2.15;1.95;;;-5.60;68.10;;;;;;6093529;23;95309;-72
2021/12/26 05:06:08;;;;;;;3.00;2.20;;;-5.70;68.80;;;;;;6093423;23;92318;-71
2021/12/26 05:08:35;;;;;;;3.10;2.10;;;-5.70;68.60;;;;;;6068467;23;92420;-71
2021/12/26 05:11:02;;;;;;;4.43;2.33;;;-5.70;69.30;;;;;;6068248;23;95852;-71
2021/12/26 05:13:30;;;;;;;3.00;2.30;;;-5.70;69.30;;;;;;6092663;23;95419;-72
2021/12/26 05:15:57;;;;;;;4.05;2.40;;;-5.70;69.30;;;;;;6093544;23;92383;-71
2021/12/26 05:18:24;;;;;;;2.92;2.42;;;-5.70;69.70;;;;;;6068182;23;92602;-71
2021/12/26 05:20:56;;;;;;;2.78;2.50;;;-5.80;69.50;;;;;;6069070;23;94973;-71
2021/12/26 05:23:24;;;;;;;3.90;3.08;;;-5.80;69.90;;;;;;6068119;23;94634;-71
2021/12/26 05:25:51;;;;;;;4.80;2.63;;;-5.80;69.70;;;;;;6068528;23;92523;-71
2021/12/26 05:28:18;;;;;;;3.83;2.30;;;-5.80;70.10;;;;;;6091353;23;95109;-71
2021/12/26 05:30:47;;;;;;;3.30;2.80;;;-5.80;70.00;;;;;;6044292;23;95319;-71
2021/12/26 05:33:18;;;;;;;4.88;4.25;;;-5.80;70.10;;;;;;6068152;23;95254;-72
2021/12/26 05:35:47;;;;;;;4.72;2.72;;;-5.80;70.10;;;;;;6068363;23;92378;-71
2021/12/26 05:38:14;;;;;;;2.95;2.63;;;-5.80;70.00;;;;;;6068436;23;92451;-71
2021/12/26 05:40:45;;;;;;;6.53;3.40;;;-5.80;69.90;;;;;;6067832;23;94443;-71
2021/12/26 05:43:12;;;;;;;4.30;2.85;;;-5.80;70.20;;;;;;6068168;23;95187;-71
2021/12/26 05:45:39;;;;;;;4.10;3.10;;;-5.80;69.90;;;;;;6069291;23;91811;-68
2021/12/26 05:48:12;;;;;;;6.40;3.83;;;-5.80;69.90;;;;;;6068591;23;92409;-68
2021/12/26 05:50:40;;;;;;;3.63;2.70;;;-5.80;70.00;;;;;;6067886;23;95474;-69
2021/12/26 05:53:22;;;;;;;6.20;3.75;;;-5.80;70.00;;;;;;6066250;23;94880;-68
2021/12/26 05:55:49;;;;;;;4.85;3.40;;;-5.80;70.20;;;;;;6068432;23;92620;-68
2021/12/26 05:58:16;;;;;;;3.97;2.95;;;-5.80;70.20;;;;;;6094276;23;92576;-68
2021/12/26 06:00:43;;;;;;;3.88;2.97;;;-5.80;69.90;;;;;;6094418;23;92914;-68
2021/12/26 06:03:11;;;;;;;4.78;3.03;;;-5.80;69.90;;;;;;6117386;23;95441;-68
2021/12/26 06:05:39;;;;;;;6.28;2.92;;;-5.80;70.20;;;;;;6092015;23;92338;-68
2021/12/26 06:08:06;;;;;;;4.75;3.25;;;-5.80;69.90;;;;;;6068399;23;92913;-68
2021/12/26 06:10:36;;;;;;;4.97;3.60;;;-5.80;70.50;;;;;;6068149;23;93323;-68
2021/12/26 06:13:03;;;;;;;4.93;3.53;;;-5.80;70.10;;;;;;6067890;23;94691;-69
2021/12/26 06:15:30;;;;;;;5.43;2.72;;;-5.80;69.90;;;;;;6067870;23;92530;-69
2021/12/26 06:17:58;;;;;;;4.25;3.28;;;-5.80;69.70;;;;;;6116034;23;94951;-68
2021/12/26 06:20:43;;;;;;;4.25;3.15;;;-5.80;69.60;;;;;;6094057;23;92747;-68
2021/12/26 06:23:52;;;;;;;;;;;-5.80;69.90;;;;;;6094459;23;93579;-69
2021/12/26 06:26:32;;;;;;;3.00;2.35;;;-5.80;69.40;;;;;;6095850;23;92457;-69
2021/12/26 06:29:06;;;;;;;5.65;2.70;;;-5.80;69.50;;;;;;6092351;23;92461;-68
2021/12/26 06:31:40;;;;;;;4.45;3.58;;;-5.80;69.70;;;;;;6093741;23;92804;-69
2021/12/26 06:34:26;;;;;;;6.10;3.60;;;-5.80;69.60;;;;;;6093802;23;92452;-68
2021/12/26 06:37:11;;;;;;;3.75;3.35;;;-5.80;69.50;;;;;;6094750;23;91653;-68
2021/12/26 06:39:59;;;;;;;3.95;3.28;;;-5.80;69.30;;;;;;6094039;23;92463;-68
2021/12/26 06:42:46;;;;;;;5.25;3.20;;;-5.80;69.20;;;;;;6093714;23;92769;-69
2021/12/26 06:45:31;;;;;;;6.53;3.50;;;-5.80;69.10;;;;;;6092371;23;94762;-68
2021/12/26 06:48:17;;;;;;;7.28;3.50;;;-5.80;69.10;;;;;;6094223;23;92546;-68
2021/12/26 06:50:47;;;;;;;5.28;3.67;;;-5.80;69.00;;;;;;6067424;23;92544;-69
2021/12/26 06:53:15;;;;;;;6.35;3.58;;;-5.80;69.30;;;;;;6091876;23;94014;-69
2021/12/26 06:55:42;;;;;;;5.32;3.35;;;-5.80;68.70;;;;;;6093502;23;92989;-69
2021/12/26 06:58:10;;;;;;;5.07;3.50;;;-5.80;68.10;;;;;;6094171;23;92449;-69
2021/12/26 07:00:38;;;;;;;6.18;3.67;;;-5.70;68.20;;;;;;6091919;23;92494;-69
2021/12/26 07:03:07;;;;;;;4.32;3.47;;;-5.80;67.90;;;;;;6092373;23;94612;-69
2021/12/26 07:05:35;;;;;;;4.32;3.40;;;-5.80;67.80;;;;;;6067199;23;94578;-69
2021/12/26 07:08:08;;;;;;;;;;;-5.80;68.10;;;;;;6068532;23;92410;-69
2021/12/26 07:10:39;;;;;;;7.65;3.88;;;-5.80;67.60;;;;;;6117853;23;94848;-69
2021/12/26 07:13:07;;;;;;;4.70;3.22;;;-5.70;67.50;;;;;;6093529;23;95487;-68
2021/12/26 07:15:37;;;;;;;4.65;3.22;;;-5.70;67.60;;;;;;6068468;23;93844;-68
2021/12/26 07:18:04;;;;;;;5.72;3.78;;;-5.70;67.60;;;;;;6094004;23;92421;-70
2021/12/26 07:20:38;;;;;;;4.65;3.97;;;-5.70;67.50;;;;;;6092278;23;92923;-68
2021/12/26 07:23:44;;;;;;;4.75;3.28;;;-5.80;67.30;;;;;;6078565;23;93887;-68
2021/12/26 07:26:14;;;;;;;4.35;3.65;;;-5.80;67.30;;;;;;6069794;23;94256;-70
2021/12/26 07:28:42;;;;;;;4.90;4.43;;;-5.70;67.00;;;;;;6069597;23;91855;-68
2021/12/26 07:31:21;;;;;;;3.28;3.00;;;-5.70;66.40;;;;;;6094645;23;92445;-69
2021/12/26 07:33:56;;;;;;;4.80;3.85;;;-5.70;66.50;;;;;;6069450;23;94174;-68
2021/12/26 07:36:26;;;;;;;5.30;3.78;;;-5.70;66.40;;;;;;6067795;23;95442;-69
2021/12/26 07:39:12;;;;;;;4.95;4.20;;;-5.70;65.90;;;;;;6094243;23;92505;-67
2021/12/26 07:41:39;;;;;;;7.60;3.95;;;-5.70;65.90;;;;;;6095064;23;92407;-68
2021/12/26 07:44:26;;;;;;;4.78;4.18;;;-5.60;65.90;;;;;;6095762;23;93781;-68
2021/12/26 07:47:17;;;;;;;4.22;3.75;;;-5.60;65.60;;;;;;6079383;23;92567;-69
2021/12/26 07:49:45;;;;;;;4.82;3.40;;;-5.60;65.10;;;;;;6068775;23;92491;-69
2021/12/26 07:52:35;;;;;;;5.63;3.58;;;-5.60;65.50;;;;;;6095782;23;92349;-69
2021/12/26 07:55:22;;;;;;;5.53;3.53;;;-5.50;65.50;;;;;;6096162;23;91910;-68
2021/12/26 07:58:08;;;;;;;4.30;3.13;;;-5.50;65.10;;;;;;6095628;23;92470;-68
2021/12/26 08:00:54;;;;;;;5.93;2.95;;;-5.50;65.20;;;;;;6094232;23;92486;-69
2021/12/26 08:03:37;;;;;;;4.38;3.90;;;-5.50;65.10;;;;;;6091987;23;94893;-69
2021/12/26 08:06:23;;;;;;;3.53;3.22;;;-5.40;65.40;;;;;;6095748;23;92869;-68
2021/12/26 08:08:51;;;;;;;5.43;3.85;;;-5.40;65.40;;;;;;6093258;23;94149;-68
2021/12/26 08:11:19;;;;;;;4.20;3.60;;;-5.40;65.10;;;;;;6118631;23;92397;-68
2021/12/26 08:13:45;;;;;;;5.10;3.85;;;-5.30;65.20;;;;;;6093467;23;92480;-69
2021/12/26 08:16:13;;;;;;;5.30;3.80;;;-5.30;65.30;;;;;;6095519;23;93016;-69
2021/12/26 08:18:40;;;;;;;4.32;3.90;;;-5.30;65.10;;;;;;6093226;23;92460;-68
2021/12/26 08:21:07;;;;;;;4.90;3.80;;;-5.20;65.10;;;;;;6069682;23;91889;-71
2021/12/26 08:23:35;;;;;;;40.13;22.33;;;-5.20;65.30;;;;;;6069407;23;92476;-71
2021/12/26 08:26:03;;;;;;;4.78;3.90;;;-5.20;65.50;;;;;;6117204;23;92896;-72
2021/12/26 08:28:30;;;;;;;3.80;3.40;;;-5.10;65.00;;;;;;6091898;23;94806;-71
2021/12/26 08:30:57;;;;;;;4.75;4.30;;;-5.10;64.40;;;;;;6095099;23;92311;-71
2021/12/26 08:33:24;;;;;;;6.28;3.63;;;-5.00;64.50;;;;;;6093115;23;98667;-71
2021/12/26 08:35:51;;;;;;;5.35;3.40;;;-4.90;64.40;;;;;;6092946;23;95472;-71
2021/12/26 08:38:21;;;;;;;5.30;4.18;;;-4.90;64.50;;;;;;6068706;23;94060;-72
2021/12/26 08:40:54;;;;;;;6.28;3.90;;;-4.80;63.90;;;;;;6094164;23;92538;-70
2021/12/26 08:43:22;;;;;;;4.72;3.42;;;-4.80;63.80;;;;;;6095397;23;92389;-71
2021/12/26 08:45:50;;;;;;;4.78;3.80;;;-4.70;63.60;;;;;;6095263;23;92251;-71
2021/12/26 08:48:17;;;;;;;4.72;3.90;;;-4.70;63.40;;;;;;6068540;23;94883;-71
2021/12/26 08:50:45;;;;;;;3.90;3.50;;;-4.60;63.30;;;;;;6095115;23;92423;-72
2021/12/26 08:53:12;;;;;;;3.72;3.42;;;-4.50;62.70;;;;;;6093938;23;94784;-71
2021/12/26 08:55:41;;;;;;;4.55;3.90;;;-4.50;63.00;;;;;;6068706;23;95854;-71
2021/12/26 08:58:08;;;;;;;4.43;3.92;;;-4.40;63.00;;;;;;6094596;23;103096;-72
2021/12/26 09:00:36;;;;;;;4.50;4.07;;;-4.40;62.50;;;;;;6068814;23;92398;-71
2021/12/26 09:03:04;;;;;;;4.85;4.30;;;-4.30;62.10;;;;;;6095055;23;92779;-71
2021/12/26 09:05:31;;;;;;;4.80;4.15;;;-4.30;62.70;;;;;;6095237;23;93040;-72
2021/12/26 09:07:58;;;;;;;5.10;4.60;;;-4.20;62.10;;;;;;6094488;23;92897;-72
2021/12/26 09:10:25;;;;;;;5.75;3.80;;;-4.10;61.70;;;;;;6068848;23;91652;-72
2021/12/26 09:12:52;;;;;;;5.10;4.30;;;-4.10;61.10;;;;;;6094599;23;92488;-71
2021/12/26 09:15:21;;;;;;;4.45;3.25;;;-4.10;61.10;;;;;;6068497;23;94095;-71
2021/12/26 09:17:48;;;;;;;3.83;3.53;;;-4.10;61.10;;;;;;6093335;23;94848;-71
2021/12/26 09:20:18;;;;;;;7.10;4.15;;;-4.00;61.70;;;;;;6092813;23;92377;-72
2021/12/26 09:22:45;;;;;;;5.18;4.10;;;-3.90;61.10;;;;;;6095322;23;92364;-71
2021/12/26 09:25:12;;;;;;;6.07;4.35;;;-3.80;61.10;;;;;;6095083;23;93052;-72
2021/12/26 09:27:39;;;;;;;4.18;3.83;;;-3.80;61.00;;;;;;6093302;23;95508;-72
2021/12/26 09:30:07;;;;;;;4.75;4.07;;;-3.70;60.70;;;;;;6095121;23;92340;-72
2021/12/26 09:32:35;;;;;;;4.88;4.30;;;-3.70;60.40;;;;;;6094825;23;92671;-71
2021/12/26 09:35:04;;;;;;;6.97;4.30;;;-3.60;60.90;;;;;;6095170;23;92260;-72
2021/12/26 09:37:31;;;;;;;4.15;3.72;;;-3.50;60.50;;;;;;6095155;23;92800;-72
2021/12/26 09:39:58;;;;;;;6.93;3.92;;;-3.40;60.80;;;;;;6069164;23;92410;-73
2021/12/26 09:42:25;;;;;;;4.82;4.03;;;-3.40;61.40;;;;;;6067076;23;102956;-72
2021/12/26 09:44:52;;;;;;;4.38;4.00;;;-3.40;60.30;;;;;;6093098;23;92980;-72
2021/12/26 09:47:20;;;;;;;5.50;4.28;;;-3.30;60.10;;;;;;6068708;23;92923;-72
2021/12/26 09:49:48;;;;;;;4.70;3.33;;;-3.30;60.20;;;;;;6069335;23;92419;-72
2021/12/26 09:52:15;;;;;;;4.47;3.88;;;-3.20;60.40;;;;;;6094824;23;92802;-72
2021/12/26 09:54:43;;;;;;;5.68;3.65;;;-3.20;60.00;;;;;;6093189;23;92846;-72
2021/12/26 09:57:10;;;;;;;5.57;4.18;;;-3.10;61.00;;;;;;6092520;23;93918;-72
2021/12/26 09:59:38;;;;;;;5.88;4.10;;;-3.10;60.20;;;;;;6095542;23;92039;-72
2021/12/26 10:02:11;;;;;;;5.05;3.95;;;-3.00;59.80;;;;;;6094795;23;92407;-72
2021/12/26 10:04:49;;;;;;;5.03;3.78;;;-2.90;60.20;;;;;;6070750;23;92982;-72
2021/12/26 10:07:22;;;;;;;4.50;3.92;;;-2.80;60.00;;;;;;6093720;23;95078;-72
2021/12/26 10:09:51;;;;;;;4.68;3.80;;;-2.70;60.00;;;;;;6095245;23;92682;-72
2021/12/26 10:12:20;;;;;;;6.00;4.25;;;-2.70;60.30;;;;;;6094865;23;92367;-72
2021/12/26 10:14:53;;;;;;;5.45;4.22;;;-2.60;60.40;;;;;;6094813;23;97667;-72
2021/12/26 10:17:27;;;;;;;85.93;31.70;;;-2.50;60.10;;;;;;6094885;23;92811;-72
2021/12/26 10:20:05;;;;;;;7.50;4.13;;;-2.50;60.30;;;;;;6044250;23;92485;-72
2021/12/26 10:22:33;;;;;;;228.50;105.80;;;-2.40;60.20;;;;;;6094835;23;92355;-72
2021/12/26 10:25:09;;;;;;;5.65;4.25;;;-2.30;60.20;;;;;;6093404;23;92417;-72
2021/12/26 10:27:37;;;;;;;5.75;3.97;;;-2.20;59.90;;;;;;6094751;23;92840;-72
2021/12/26 10:30:06;;;;;;;4.82;4.30;;;-2.20;59.70;;;;;;6094415;23;92391;-72
2021/12/26 10:32:37;;;;;;;5.25;3.88;;;-2.10;60.30;;;;;;6066952;23;94921;-72
2021/12/26 10:35:17;;;;;;;4.38;3.35;;;-2.00;60.10;;;;;;6068329;23;92488;-72
2021/12/26 10:37:49;;;;;;;4.85;3.85;;;-1.90;60.10;;;;;;6092270;23;95544;-72
2021/12/26 10:40:17;;;;;;;13.52;3.35;;;-1.90;59.90;;;;;;6092322;23;92457;-72
2021/12/26 10:42:51;;;;;;;4.13;3.58;;;-1.80;59.30;;;;;;6068499;23;92522;-72
2021/12/26 10:45:20;;;;;;;;;;;-1.70;59.00;;;;;;6107680;23;93758;-72
2021/12/26 10:47:53;;;;;;;4.90;3.70;;;-1.70;59.40;;;;;;6127289;23;92894;-72
2021/12/26 10:50:23;;;;;;;4.70;3.45;;;-1.60;58.00;;;;;;6126131;23;91771;-73
2021/12/26 10:53:03;;;;;;;4.35;3.47;;;-1.50;58.20;;;;;;6125504;23;92292;-72
2021/12/26 10:55:32;;;;;;;4.22;3.67;;;-1.50;57.30;;;;;;6125542;23;93014;-72
2021/12/26 10:58:02;;;;;;;5.57;3.75;;;-1.50;57.90;;;;;;6123737;23;94800;-72
2021/12/26 11:00:33;;;;;;;4.32;3.47;;;-1.40;57.90;;;;;;6125453;23;92324;-73
2021/12/26 11:03:09;;;;;;;4.38;3.67;;;-1.30;56.80;;;;;;6098861;23;92442;-72
2021/12/26 11:05:45;;;;;;;4.78;3.65;;;-1.30;56.50;;;;;;6125212;23;92993;-72
2021/12/26 11:08:14;;;;;;;3.97;3.47;;;-1.20;56.50;;;;;;6125125;23;92782;-72
2021/12/26 11:10:46;;;;;;;3.55;3.25;;;-1.20;56.70;;;;;;6125371;23;92405;-72
2021/12/26 11:13:21;;;;;;;6.30;3.70;;;-1.10;56.90;;;;;;6124868;23;92458;-72
2021/12/26 11:15:50;;;;;;;4.38;3.03;;;-1.10;56.10;;;;;;6125620;23;92295;-72
2021/12/26 11:18:18;;;;;;;3.10;2.80;;;-1.10;55.90;;;;;;6124743;23;92675;-72
2021/12/26 11:20:48;;;;;;;4.70;3.50;;;-1.00;55.70;;;;;;6125086;23;92392;-72
2021/12/26 11:23:30;;;;;;;4.90;3.70;;;-0.90;55.90;;;;;;6123638;23;94857;-72
2021/12/26 11:26:07;;;;;;;5.38;3.83;;;-0.80;56.10;;;;;;6125180;23;93187;-72
2021/12/26 11:28:39;;;;;;;4.78;3.90;;;-0.80;55.40;;;;;;6125272;23;92766;-72
2021/12/26 11:31:08;;;;;;;4.75;3.58;;;-0.80;55.90;;;;;;6125098;23;92398;-72
2021/12/26 11:33:36;;;;;;;5.80;3.97;;;-0.70;55.70;;;;;;6125131;23;92423;-72
2021/12/26 11:36:06;;;;;;;3.63;3.20;;;-0.70;55.50;;;;;;6124647;23;103421;-73
2021/12/26 11:38:33;;;;;;;4.57;3.55;;;-0.70;55.70;;;;;;6125069;23;92731;-72
2021/12/26 11:42:00;;;;;;;12.63;6.82;;;-0.60;55.30;;;;;;6125399;23;91921;-72
2021/12/26 11:45:23;;;;;;;5.20;3.47;;;-0.60;55.80;;;;;;6063278;23;92653;-72
2021/12/26 11:48:46;;;;;;;4.40;3.60;;;-0.50;55.80;;;;;;6062935;23;92787;-72
2021/12/26 11:51:50;;;;;;;4.78;3.42;;;-0.40;55.80;;;;;;6123482;23;95180;-73
2021/12/26 11:55:04;;;;;;;5.20;4.20;;;-0.30;55.80;;;;;;6099445;23;92685;-72
2021/12/26 11:58:05;;;;;;;4.22;3.72;;;-0.20;55.80;;;;;;6098881;23;92522;-73
2021/12/26 12:00:37;;;;;;;3.95;3.53;;;-0.20;55.60;;;;;;6124817;23;92926;-73
2021/12/26 12:03:15;;;;;;;9.27;3.78;;;-0.20;55.20;;;;;;6125163;23;95897;-73
2021/12/26 12:05:44;;;;;;;5.97;4.00;;;-0.10;55.60;;;;;;6125618;23;92373;-73
2021/12/26 12:08:16;;;;;;;5.75;4.25;;;-0.10;56.10;;;;;;6097737;23;99005;-72
2021/12/26 12:10:57;;;;;;;5.30;3.67;;;0.00;55.70;;;;;;6125514;23;92218;-72
2021/12/26 12:13:26;;;;;;;4.28;3.47;;;0.10;56.20;;;;;;6124920;23;92688;-72
2021/12/26 12:15:53;;;;;;;5.45;3.38;;;0.20;55.70;;;;;;6123316;23;92969;-73
2021/12/26 12:18:31;;;;;;;4.18;3.78;;;0.20;55.60;;;;;;6122804;23;107052;-73
2021/12/26 12:21:09;;;;;;;5.82;4.28;;;0.30;55.20;;;;;;6124790;23;93127;-73
2021/12/26 12:23:55;;;;;;;4.35;3.47;;;0.30;54.80;;;;;;6122366;23;92991;-73
2021/12/26 12:26:44;;;;;;;5.95;3.55;;;0.30;54.80;;;;;;6124694;23;92504;-73
2021/12/26 12:29:25;;;;;;;5.78;4.15;;;0.50;55.00;;;;;;6098437;23;92415;-73
2021/12/26 12:32:07;;;;;;;4.68;3.33;;;0.50;55.00;;;;;;6124734;23;92981;-73
2021/12/26 12:35:08;;;;;;;6.38;3.45;;;0.60;55.00;;;;;;6124616;23;92806;-73
2021/12/26 12:37:39;;;;;;;8.57;4.32;;;0.60;55.20;;;;;;6125130;23;91549;-73
2021/12/26 12:40:09;;;;;;;4.78;4.00;;;0.70;55.30;;;;;;6124437;23;92372;-72
2021/12/26 12:42:38;;;;;;;5.03;3.47;;;0.80;55.40;;;;;;6124579;23;93087;-73
2021/12/26 12:45:06;;;;;;;4.60;4.05;;;0.80;55.30;;;;;;6122679;23;106813;-73
2021/12/26 12:47:33;;;;;;;5.32;3.67;;;0.90;55.80;;;;;;6124781;23;92427;-73
2021/12/26 12:50:03;;;;;;;5.18;3.90;;;0.90;56.00;;;;;;6099007;23;92468;-73
2021/12/26 12:52:40;;;;;;;5.78;3.80;;;1.00;56.10;;;;;;6124353;23;93166;-73
2021/12/26 12:55:12;;;;;;;5.72;4.18;;;1.00;56.40;;;;;;6147870;22;94097;-73
2021/12/26 12:57:44;;;;;;;4.65;3.95;;;1.10;56.50;;;;;;6124343;23;92392;-73
2021/12/26 13:00:38;;;;;;;5.88;3.63;;;1.10;56.50;;;;;;6124717;23;92379;-72
2021/12/26 13:03:05;;;;;;;5.60;4.18;;;1.10;56.40;;;;;;6095436;23;93537;-72
2021/12/26 13:05:35;;;;;;;4.53;3.70;;;1.10;56.80;;;;;;6124132;23;92895;-75
2021/12/26 13:08:11;;;;;;;3.10;2.85;;;1.10;57.30;;;;;;6124666;23;92418;-73
2021/12/26 13:10:39;;;;;;;4.07;3.38;;;1.10;56.30;;;;;;6122889;23;94845;-72
2021/12/26 13:13:10;;;;;;;5.60;3.92;;;1.20;56.40;;;;;;6124272;23;93080;-72
2021/12/26 13:15:58;;;;;;;4.70;3.75;;;1.20;56.40;;;;;;6124315;23;92471;-72
2021/12/26 13:18:29;;;;;;;6.97;5.07;;;1.20;55.90;;;;;;6124745;23;92484;-72